PGRO/ROP METAR and TAF weather

Enter ICAO airport designator
Station Type Date Time Source
PGRO METAR 2024/06/14 02:50 UTC NOAA

PGRO 140250Z 09013G18KT 7SM -RA BKN015 BKN080 29/24 A2984


Station Type Date Time Source
PGRO Decoded METAR 2024/06/14 02:50 UTC NOAA

Rota Island, N. Mariana Is, Rota International Airport, GU, United States (PGRO) 14-11N 145-15E
Jun 13, 2024 - 10:50 PM EDT / 2024.06.14 0250 UTC
Wind: from the E (090 degrees) at 15 MPH (13 KT) gusting to 21 MPH (18 KT):0
Visibility: 7 mile(s):0
Sky conditions: mostly cloudy
Weather: light rain
Temperature: 84 F (29 C)
Dew Point: 75 F (24 C)
Relative Humidity: 74%
Pressure (altimeter): 29.84 in. Hg (1010 hPa)
ob: PGRO 140250Z 09013G18KT 7SM -RA BKN015 BKN080 29/24 A2984
cycle: 3

Station Type Date Time Source
PGRO TAF 2024/06/13 20:30 UTC NOAA